Terminal Aerodrome Forecast
Issued by NWS Twin Cities, MN

Home | Current Version | Previous Version | Text Only | Print | Product List | Glossary Off
Versions: 1 2 3 4 5 6 7 8 9 10 11 12 13 14 15 16 17 18 19 20 21 22 23 24 25

000
FTUS43 KMPX 311700
TAFMSP
TAF
KMSP 311737Z 3118/0124 29008KT P6SM SCT050
     FM010300 VRB03KT P6SM SKC
     FM011500 28005KT P6SM SCT050
      TEMPO 0119/0123 6SM -SHRA SCT030 BKN050=

USA.gov is the U.S. government's official web portal to all federal, state and local government web resources and services.